Aérodrome :
LOGIN :

S'inscrire | Disclaimer

   EN    FR    IT 

 










Légende :    VFR   VFR Marginal   IFR   IFR Intensif   IFR Très Intensif
Visi : 
Plafond : 
>= 8 km
>= 3000ft
5 à 8 km
1000 à 3000 ft
1500m à 5 km
500 à 1000 ft
800 à 1500m
200 à 500 ft
< 800m
< 200 ft
Symboles :   Orages  Brouillard  Fortes neiges  Fortes précipitations  Vent > 20 kt
SIGMETs :   Divers  Orages  Givrage  Turbulence  Onde Orograph.  Cendres Volcan.







- Altitude de l'aérodrome : 33 ft
- Code IATA : MHZ


EGUN - RAF Mildenhall

DERNIER METAR :
  • 160356Z AUTO 20007KT 9999 CLR 07/07 A3013 RMK AO2 SLP206 T00710071 $

METARs EXPIRÉS :
  • 160256Z AUTO 22007KT 9999 CLR 07/07 A3013 RMK AO2 SLP206 T00680068 57012 $
  • 160156Z AUTO 22007KT 9999 CLR 06/06 A3015 RMK AO2 SLP213 T00630063 $

TAF TAF EGUN
Valide du 15 à 12h jusqu'au 16 à 18h UTC


151215Z 1512/1618 17009KT 9999 SKC QNH3022INS
BECMG 1523/1524 21009KT 9999 SKC QNH3016INS
TEMPO 1604/1609 5000 BR
BECMG 1611/1612 21009KT 9999 BKN010 QNH3016INS TX11/1514Z TN05/1604Z
Pas de NOTAMs connus pour ce terrain.
1 SIGMET publié pour la FIR London (EGTT) :
 
Onde orographique forte
EGTT SIGMET 01 VALID 160300/160600 EGRR
EGTT LONDON FIR SEV MTW FCST WI N5328 E00011 - N5228 W00406 - N5500 W00435 - N5500 E00008 - N5328 E00011 FL030/200 STNR WKN=



MET'MAP, la Météo Aéronautique d'un coup d'oeil ! - Copyright ORBIFLY Décembre 2007 - Disclaimer

ORBIFLY MET'MAP TEAM :

Programmation & Développement : Alexandra Zaïnal
Conception & Développement : Baudouin d'Aumeries
Co-Programmation & Développement : Marc-Olivier Méhu
Soutien technique & logistique : Manuel Goepfert

Contact : metmap@orbifly.com




SOURCES & CREDITS :

   NOAA